Portada
METAR-TAF:

METAR-TAF

Aeroports :

Malé, Maldives

latitud: 04-12N, longitud: 073-32E, altitud: 2 m

Observació

L'informe es va fer fa 1 hora i 21 minuts, a les 06:00 UTC
Vent 12 kt del Sud-Est
Temperatura 32°C
Humitat 63%
Pressió 1010 hPa
Visibilitat 10 km o més
Escasses núvols a una alçada de 1800 ft
Cel ennuvolat a una alçada de 29000 ft

METAR: VRMM 230600Z 14012KT 9999 FEW018 BKN290 32/24 Q1010 NOSIG

Hora: 12:21 (07:21 UTC)

Pronòstic

L'informe es va fer fa 2 hores i 21 minuts, a les 05:00 UTC
Pronòstic vàlid del 23 a les 06 UTC al 24 a les 12 UTC
Vent 10 kt del Sud-Est
Visibilitat 10 km o més
Escasses núvols a una alçada de 1800 ft
Temporalment
l' 23 a les 08 UTC al 23 a les 12 UTC
Escasses núvols a una alçada de 1800 ft, Cumulonimbus.

TAF: VRMM 230500Z 2306/2412 14010KT 9999 FEW018 TEMPO 2308/2312 FEW018CB

Observacions i pronòstics meteorològics de més de 4000 aeroports (METAR i TAF).

Les estacions disponibles són els punts grocs i vermells al mapa.

Posi el ratolí al punt desitjat per veure el nom de l'estació.

Feu clic per veure les observacions i els pronòstics meteorològics.

Per canviar el mapa: feu clic els botons verds amb una creu de color negre per apropar; al botó verd amb un guió per allunyar la imatge; o en les fletxes verdes per a mapes adjacents.


METAR-TAF: